Nearby METAR Reports

 

CYUL - Montreal/Dorval, Quebec, Canada
Distance from station: ENE 6km
Updated: 10/16/2019 19:00 EDT
Light rain, Overcast
Light rain, Overcast
 Wind from ESE
Wind: ESE 19 km/h
Temperature: 14°C
Dew Point: 7°C
Humidity: 63%
Barometer: 1003 hPa
Summary: Light rain
Clouds: Overcast
Visibility: 16 km
Cloud details: Overcast 2286 m
2019/10/16 23:00 CYUL 162300Z 11010KT 10SM -RA OVC075 14/07 A2962 RMK AS8 SLP034 DENSITY ALT 400FT
CWVQ - Ste Anne De Bell, Quebec, Canada
Distance from station: WSW 10km
Updated: 10/16/2019 19:00 EDT

 Wind from SE
Wind: SE 9 km/h
Temperature: 13°C
Dew Point: 8°C
Humidity: 72%
2019/10/16 23:00 CWVQ 162300Z AUTO 13005KT 13/08 RMK AO1 SLP034 T01260081 56011
 
CWTA - Mc Tavish (aut), Quebec, Canada
Distance from station: ENE 18km
Updated: 10/16/2019 19:00 EDT

 Wind from S
Wind: S 6 km/h
Temperature: 15°C
Dew Point: 5°C
Humidity: 51%
2019/10/16 23:00 CWTA 162300Z AUTO 17003KT 15/05 RMK AO1 SLP036 T01460051 56021
CYMX - Montreal/Mirabel, Quebec, Canada
Distance from station: NW 29km
Updated: 10/16/2019 19:00 EDT
Light rain, Overcast
Light rain, Overcast
 Wind from ESE
Wind: ESE 9 km/h
Temperature: 12°C
Dew Point: 8°C
Humidity: 77%
Barometer: 1003.7 hPa
Summary: Light rain
Clouds: Overcast
Visibility: 24 km
Cloud details: Overcast 1829 m
2019/10/16 23:00 CYMX 162300Z 12005KT 15SM -RA OVC060 12/08 A2964 RMK SC8 SLP039 DENSITY ALT 300FT
 
CYHU - Saint Hubert Arp, Quebec, Canada
Distance from station: ENE 31km
Updated: 10/16/2019 19:00 EDT
Overcast
Overcast
 Wind from SE
Wind: SE 19 km/h, Gust: 31 km/h
Temperature: 14°C
Dew Point: 4°C
Humidity: 51%
Barometer: 1003.7 hPa
Clouds: Overcast
Visibility: 14 km
Cloud details: Partly cloudy 2286 m
Overcast 3048 m
2019/10/16 23:00 CYHU 162300Z AUTO 13010G17KT 9SM SCT075 OVC100 14/04 A2964 RMK SLP038 DENSITY ALT 300FT
CWIT - St Clothilde (a, Quebec, Canada
Distance from station: SSE 33km
Updated: 10/16/2019 19:00 EDT

 Wind from ESE
Wind: ESE 9 km/h
Temperature: 13°C
Dew Point: 7°C
Humidity: 67%
2019/10/16 23:00 CWIT 162300Z AUTO 11005KT 13/07 RMK AO1 SLP027 T01250066 56025
 
CWIZ - L'acadie, Quebec, Canada
Distance from station: ESE 41km
Updated: 10/16/2019 19:00 EDT

 Wind from ESE
Wind: ESE 11 km/h
Temperature: 14°C
Dew Point: 5°C
Humidity: 55%
2019/10/16 23:00 CWIZ 162300Z AUTO 12006KT 14/05 RMK AO1 T01400052
CWHM - Varennes, Quebec, Canada
Distance from station: NE 45km
Updated: 10/25/2016 10:00 EDT
NOT Current

 Wind from W
Wind: W 19 km/h, Gust: 28 km/h
Temperature: 4°C
Wind Chill: 0°C
Dew Point: -2°C
Humidity: 65%
2016/10/25 14:00 CWHM 251400Z AUTO 28010G15KT 04/M02 RMK AO1 PK WND 28018/1302 T00391017
 
CWEW - L'assomption, Quebec, Canada
Distance from station: NE 50km
Updated: 10/16/2019 19:00 EDT

 Wind from E
Wind: E 9 km/h
Temperature: 14°C
Dew Point: 5°C
Humidity: 55%
2019/10/16 23:00 CWEW 162300Z AUTO 10005KT 14/05 RMK AO1 SLP046 T01410047 56019
CWBZ - St Anicet, Quebec, Canada
Distance from station: SW 52km
Updated: 10/16/2019 19:00 EDT

 Wind from ENE
Wind: ENE 9 km/h
Temperature: 11°C
Dew Point: 10°C
Humidity: 94%
2019/10/16 23:00 CWBZ 162300Z AUTO 06005KT 11/10 RMK AO1 7PAST HR 8014 SLP017 P0011 T01100095 50030
 
KFSO - Highgate, Vermont, USA
Distance from station: SE 79km
Updated: 10/16/2019 19:15 EDT
Light rain, Overcast
Light rain, Overcast
 Wind from ESE
Wind: ESE 22 km/h, Gust: 31 km/h
Temperature: 15°C
Dew Point: 6°C
Humidity: 55%
Barometer: 1003.7 hPa
Summary: Light rain
Clouds: Overcast
Visibility: 16 km
Cloud details: Mostly cloudy 2438 m
Overcast 2743 m
2019/10/16 23:15 KFSO 162315Z AUTO 12012G17KT 10SM -RA BKN080 OVC090 15/06 A2964 RMK AO2 T01510055
CMGB - Granby, Quebec, Canada
Distance from station: E 81km
Updated: 10/16/2019 19:15 EDT

 Wind from SE
Wind: SE 13 km/h
Temperature: 15°C
2019/10/16 23:15 CMGB 162315Z AUTO 13007KT 15/ RMK AO1 SLP043 T0146 58025
 
CWJT - St Jovite (autob, Quebec, Canada
Distance from station: NW 88km
Updated: 10/16/2019 19:00 EDT

 Wind from N
Wind: N 11 km/h
Temperature: 5°C
Wind Chill: 2°C
Dew Point: 4°C
Humidity: 93%
2019/10/16 23:00 CWJT 162300Z AUTO 00006KT 05/04 RMK AO1 SLP176 T00540037 53001
CWFQ - Frelighsburg, Quebec, Canada
Distance from station: ESE 90km
Updated: 10/16/2019 19:00 EDT

 Wind from ESE
Wind: ESE 17 km/h, Gust: 31 km/h
Temperature: 13°C
Dew Point: 4°C
Humidity: 55%
2019/10/16 23:00 CWFQ 162300Z AUTO 11009G17KT 13/04 RMK AO1 PK WND 13019/2243 SLP039 T01270042 58030
 
KPBG - Plattsburgh Afb, New York, USA
Distance from station: SSE 93km
Updated: 10/16/2019 18:53 EDT
Light rain, Overcast
Light rain, Overcast
 Wind from SE
Wind: SE 13 km/h
Temperature: 14°C
Dew Point: 7°C
Humidity: 63%
Barometer: 1003 hPa
Summary: Light rain
Clouds: Overcast
Visibility: 16 km
Cloud details: Few Clouds 2286 m
Overcast 2743 m
2019/10/16 22:53 KPBG 162253Z AUTO 14007KT 10SM -RA FEW075 OVC090 14/07 A2962 RMK AO2 RAB27 SLP032 P0000 T01390072
KMSS - Massena, New York, USA
Distance from station: SW 100km
Updated: 10/16/2019 18:53 EDT
Light rain, Overcast
Light rain, Overcast
 Wind from ENE
Wind: ENE 11 km/h
Temperature: 12°C
Dew Point: 10°C
Humidity: 88%
Barometer: 1001 hPa
Summary: Light rain
Clouds: Overcast
Visibility: 13 km
Cloud details: Overcast 1981 m
2019/10/16 22:53 KMSS 162253Z AUTO 07006KT 8SM -RA OVC065 12/10 A2956 RMK AO2 SLP013 P0005 T01220100
 
CWBS - Lac St Pierre (a, Quebec, Canada
Distance from station: NE 106km
Updated: 10/16/2019 19:00 EDT

 Wind from ENE
Wind: ENE 19 km/h
Temperature: 15°C
Dew Point: 7°C
Humidity: 59%
2019/10/16 23:00 CWBS 162300Z AUTO 07010KT 15/07 RMK AO1 T01460071
KBTV - Burlington, Vermont, USA
Distance from station: SSE 121km
Updated: 10/16/2019 18:54 EDT
Overcast
Overcast
 Wind from SE
Wind: SE 31 km/h, Gust: 46 km/h
Temperature: 14°C
Dew Point: 6°C
Humidity: 59%
Barometer: 1003 hPa
Clouds: Overcast
Visibility: 16 km
Cloud details: Mostly cloudy 2286 m
Mostly cloudy 2896 m
Overcast 3353 m
2019/10/16 22:54 KBTV 162254Z 13017G25KT 10SM BKN075 BKN095 OVC110 14/06 A2962 RMK AO2 RAB28E50 SLP031 P0000 T01390056
 
KSLK - Saranac Lake, New York, USA
Distance from station: SSW 121km
Updated: 10/16/2019 18:51 EDT
Light rain, Overcast
Light rain, Overcast
 Wind from ESE
Wind: ESE 9 km/h
Temperature: 11°C
Dew Point: 7°C
Humidity: 77%
Barometer: 1001.7 hPa
Summary: Light rain
Clouds: Overcast
Visibility: 16 km
Cloud details: Partly cloudy 1189 m
Overcast 1676 m
2019/10/16 22:51 KSLK 162251Z AUTO 11005KT 10SM -RA SCT039 OVC055 11/07 A2958 RMK AO2 RAE04B39 SLP023 P0000 T01060067
CWNQ - Nicolet (autob), Quebec, Canada
Distance from station: NE 123km
Updated: 08/26/2019 10:00 EDT
NOT Current

 Wind from NNE
Wind: NNE 6 km/h
2019/08/26 14:00 CWNQ 261400Z AUTO 03003KT RMK AO1 PRESFR
 
KMWN - Mount Washington, New Hampshire, USA
Distance from station: SE 237km
Updated: 10/16/2019 18:53 EDT
Freezing fog, Overcast
Freezing fog, Overcast
 Wind from SSE
Wind: SSE 57 km/h
Temperature: -3°C
Wind Chill: -12°C
Dew Point: -3°C
Humidity: 100%
Summary: Freezing Fog
Clouds: Overcast
Visibility: 0.2 km
Cloud details: Overcast 61 m
2019/10/16 22:53 KMWN 162253Z 15031KT 1/8SM FZFG VV002 M03/M03 RMK VRY LGT ICG
CYVR - Vancouver Intl A, British Columbia, Canada
Distance from station: NW 3676km
Updated: 10/16/2019 19:00 EDT
Light rain, Mostly cloudy
Light rain, Mostly cloudy
 Wind from S
Wind: S 17 km/h
Temperature: 12°C
Dew Point: 11°C
Humidity: 94%
Barometer: 1002.4 hPa
Summary: Light rain
Clouds: Mostly cloudy
Visibility: 16 km
Cloud details: Few Clouds 366 m
Few Clouds 762 m
Partly cloudy 975 m
Mostly cloudy 1615 m
Mostly cloudy 1768 m
2019/10/16 23:00 CYVR 162300Z 17009KT 10SM -RA FEW012 FEW025 SCT032 BKN053 BKN058 12/11 A2960 RMK SC1SC1SC1SC3SC1 SLP024 DENSITY ALT 100FT